Patuxent River Naval Air Station/Trapnell Field Aiport
KNHK : rendu visible

Aérodrome :











RETROUVEZ-NOUS SUR...

 
LOGIN :

S'inscrire | Disclaimer

   EN    FR    IT 

 









Légende :    VFR   VFR Marginal   IFR   IFR Intensif   IFR Très Intensif
Visi : 
Plafond : 
>= 8 km
>= 3000ft
5 à 8 km
1000 à 3000 ft
1500m à 5 km
500 à 1000 ft
800 à 1500m
200 à 500 ft
< 800m
< 200 ft
Symboles :   Orages  Brouillard  Fortes neiges  Fortes précipitations  Vent > 20 kt






- Altitude de l'aérodrome : 39 ft


KNHK - Patuxent River Naval Air Station/Trapnell Field Aiport

DERNIER METAR :
  • 300152Z COR 21008KT 10SM FEW050 OVC110 23/21 A2993 RMK AO2 SLP135 OCNL LTGIC DSNT NW CB DSNT NW T02280211 $

METARs EXPIRÉS :
  • 300052Z 20008KT 10SM FEW050 BKN110 23/21 A2992 RMK AO2 SLP131 T02330206 $
  • 292352Z 22010KT 10SM FEW050 BKN120 24/20 A2993 RMK AO2 SLP135 60000 T02440200 10289 20239 55005 $

TAF COR TAF KNHK
Valide du 29 à 23h jusqu'au 30 à 23h UTC


2923/3023 21010KT 9999 FEW030 SCT080 BKN190 BKN280 QNH2988INS
TEMPO 3000/3006 VRB06KT 9000 -RA BKN030
BECMG 3004/3006 21009KT 9999 FEW030 SCT045 BKN065 QNH2986INS
BECMG 3010/3012 VRB06KT 9999 FEW015 SCT025 BKN040 QNH2987INS
BECMG 3016/3018 34006KT 9999 VCTS FEW030CB SCT045 OVC065 QNH2981INS
TEMPO 3018/3023 VRB15G25KT 4800 -TSRA BR SCT020CB BKN035 OVC050 AUTOMATED SENSOR METWATCH 3003 TIL 3011 T21/3009Z T27/3018Z COR 2303 FN00067
FIR KZDC / Amérique du Nord



MET'MAP, la Météo Aéronautique d'un coup d'oeil ! - Copyright ORBIFLY Décembre 2007 - Disclaimer

ORBIFLY MET'MAP TEAM :

Programmation & Développement : Alexandra Zaïnal
Sur une idée originale de : Baudouin d'Aumeries
Assistance à la programmation : Marc-Olivier Méhu
Soutien technique & logistique : Manuel Goepfert

Contact : metmap@orbifly.com




SOURCES & CREDITS :

   NOAA       Earth
Advisory